createdAt,value
2018-07-14T00:00:37.796Z,8.57
2018-07-14T00:03:06.431Z,7.03
2018-07-14T00:05:35.097Z,7.97
2018-07-14T00:08:03.755Z,8.13
2018-07-14T00:10:32.306Z,7.73
2018-07-14T00:13:00.872Z,5.80
2018-07-14T00:15:29.433Z,5.90
2018-07-14T00:17:58.024Z,6.37
2018-07-14T00:20:26.536Z,6.23
2018-07-14T00:22:55.367Z,6.70
2018-07-14T00:25:29.307Z,7.47
2018-07-14T00:27:57.858Z,9.00
2018-07-14T00:30:26.383Z,14.80
2018-07-14T00:32:54.991Z,15.40
2018-07-14T00:35:23.554Z,10.37
2018-07-14T00:37:52.079Z,9.23
2018-07-14T00:40:20.671Z,9.07
2018-07-14T00:42:49.241Z,15.47
2018-07-14T00:45:17.849Z,15.37
2018-07-14T00:47:46.373Z,15.10
2018-07-14T00:50:14.967Z,12.37
2018-07-14T00:52:43.498Z,13.70
2018-07-14T00:55:12.049Z,12.20
2018-07-14T00:57:40.621Z,11.53
2018-07-14T01:00:09.249Z,11.30
2018-07-14T01:02:37.781Z,11.57
2018-07-14T01:05:06.395Z,19.27
2018-07-14T01:07:34.977Z,18.20
2018-07-14T01:10:03.226Z,10.73
2018-07-14T01:12:31.793Z,9.73
2018-07-14T01:15:00.375Z,8.90
2018-07-14T01:17:28.994Z,6.30
2018-07-14T01:19:58.002Z,6.33
2018-07-14T01:22:26.376Z,6.93
2018-07-14T01:24:54.919Z,7.20
2018-07-14T01:27:23.522Z,7.13
2018-07-14T01:29:52.186Z,9.87
2018-07-14T01:32:20.744Z,9.17
2018-07-14T01:34:49.281Z,8.40
2018-07-14T01:37:18.733Z,6.83
2018-07-14T01:39:47.272Z,6.67
2018-07-14T01:42:15.787Z,6.93
2018-07-14T01:44:44.030Z,7.07
2018-07-14T01:47:12.551Z,6.30
2018-07-14T01:49:41.104Z,8.00
2018-07-14T01:52:09.635Z,7.07
2018-07-14T01:54:38.312Z,16.20
2018-07-14T01:57:06.844Z,15.27
2018-07-14T01:59:35.374Z,10.70
2018-07-14T02:02:03.896Z,8.70
2018-07-14T02:04:32.469Z,9.67
2018-07-14T02:07:01.041Z,11.37
2018-07-14T02:09:29.565Z,12.07
2018-07-14T02:11:58.134Z,10.07
2018-07-14T02:14:26.704Z,7.27
2018-07-14T02:16:55.237Z,7.23
2018-07-14T02:19:23.749Z,6.63
2018-07-14T02:21:52.300Z,5.90
2018-07-14T02:24:20.802Z,6.07
2018-07-14T02:26:49.376Z,6.40
2018-07-14T02:29:18.005Z,6.87
2018-07-14T02:31:46.628Z,6.70
2018-07-14T02:34:15.152Z,5.97
2018-07-14T02:36:43.719Z,6.70
2018-07-14T02:39:12.225Z,5.97
2018-07-14T02:41:40.882Z,5.80
2018-07-14T02:44:09.449Z,5.10
2018-07-14T02:46:38.014Z,6.07
2018-07-14T02:49:06.562Z,5.83
2018-07-14T02:51:35.099Z,5.90
2018-07-14T02:54:03.616Z,5.33
2018-07-14T02:56:32.183Z,5.30
2018-07-14T02:59:00.736Z,6.00
2018-07-14T03:01:29.279Z,5.37
2018-07-14T03:03:57.876Z,6.00
2018-07-14T03:06:26.442Z,5.70
2018-07-14T03:08:54.970Z,5.00
2018-07-14T03:11:23.485Z,5.30
2018-07-14T03:13:52.236Z,5.40
2018-07-14T03:16:20.765Z,5.50
2018-07-14T03:18:49.011Z,6.40
2018-07-14T03:21:17.530Z,7.87
2018-07-14T03:23:46.055Z,6.57
2018-07-14T03:26:14.647Z,5.93
2018-07-14T03:28:43.250Z,5.90
2018-07-14T03:31:11.799Z,6.77
2018-07-14T03:33:40.348Z,6.43
2018-07-14T03:36:08.874Z,5.57
2018-07-14T03:38:37.410Z,6.70
2018-07-14T03:41:06.349Z,6.37
2018-07-14T03:43:34.890Z,7.20
2018-07-14T03:46:03.634Z,6.03
2018-07-14T03:48:32.169Z,7.40
2018-07-14T03:51:00.714Z,8.80
2018-07-14T03:53:29.269Z,6.47
2018-07-14T03:55:57.794Z,6.73
2018-07-14T03:58:26.372Z,6.40
2018-07-14T04:00:54.912Z,7.40
2018-07-14T04:03:23.454Z,6.43
2018-07-14T04:05:52.002Z,6.33
2018-07-14T04:08:20.583Z,6.37
2018-07-14T04:10:49.142Z,7.37
2018-07-14T04:13:17.666Z,7.50
2018-07-14T04:15:46.318Z,9.10
2018-07-14T04:18:14.857Z,8.20
2018-07-14T04:20:43.402Z,7.83
2018-07-14T04:23:11.955Z,19.20
2018-07-14T04:25:40.545Z,22.87
2018-07-14T04:28:09.068Z,19.00
2018-07-14T04:30:37.620Z,13.17
2018-07-14T04:33:06.131Z,22.50
2018-07-14T04:35:34.695Z,10.47
2018-07-14T04:38:03.214Z,9.53
2018-07-14T04:40:31.845Z,8.53
2018-07-14T04:43:00.354Z,6.60
2018-07-14T04:45:28.930Z,7.10
2018-07-14T04:47:57.517Z,6.83
2018-07-14T04:53:05.717Z,5.63
2018-07-14T04:55:34.275Z,6.67
2018-07-14T04:58:02.806Z,16.80
2018-07-14T05:00:31.356Z,20.70
2018-07-14T05:02:59.874Z,9.50
2018-07-14T05:05:28.662Z,6.50
2018-07-14T05:07:57.207Z,10.43
2018-07-14T05:10:25.749Z,9.27
2018-07-14T05:12:54.289Z,14.67
2018-07-14T05:15:22.928Z,8.97
2018-07-14T05:17:51.449Z,6.17
2018-07-14T05:20:20.012Z,5.60
2018-07-14T05:22:48.222Z,5.67
2018-07-14T05:25:16.762Z,5.60
2018-07-14T05:27:45.282Z,14.60
2018-07-14T05:30:13.837Z,19.03
2018-07-14T05:32:42.360Z,6.40
2018-07-14T05:35:10.907Z,5.13
2018-07-14T05:37:39.458Z,5.20
2018-07-14T05:40:08.023Z,5.63
2018-07-14T05:42:36.569Z,5.00
2018-07-14T05:45:05.194Z,5.33
2018-07-14T05:47:33.706Z,5.07
2018-07-14T05:50:02.246Z,5.03
2018-07-14T05:52:30.854Z,4.40
2018-07-14T05:54:59.393Z,4.77
2018-07-14T05:57:27.901Z,4.43
2018-07-14T05:59:56.446Z,4.93
2018-07-14T06:02:24.978Z,6.27
2018-07-14T06:04:53.598Z,6.83
2018-07-14T06:07:21.818Z,5.23
2018-07-14T06:09:50.359Z,5.63
2018-07-14T06:12:18.946Z,5.80
2018-07-14T06:14:47.457Z,7.27
2018-07-14T06:17:16.116Z,8.70
2018-07-14T06:19:44.590Z,5.83
2018-07-14T06:22:13.145Z,3.83
2018-07-14T06:24:41.669Z,3.90
2018-07-14T06:27:10.203Z,4.00
2018-07-14T06:29:38.733Z,4.10
2018-07-14T06:32:07.385Z,4.00
2018-07-14T06:34:35.843Z,3.87
2018-07-14T06:37:04.726Z,4.20
2018-07-14T06:39:33.256Z,4.00
2018-07-14T06:42:01.836Z,4.30
2018-07-14T06:44:30.434Z,4.03
2018-07-14T06:46:58.978Z,4.03
2018-07-14T06:49:27.494Z,4.00
2018-07-14T06:51:56.059Z,4.27
2018-07-14T06:54:24.625Z,3.83
2018-07-14T06:56:53.174Z,4.00
2018-07-14T06:59:21.683Z,5.73
2018-07-14T07:01:50.241Z,20.97
2018-07-14T07:04:18.775Z,6.40
2018-07-14T07:06:47.354Z,3.87
2018-07-14T07:09:16.390Z,3.67
2018-07-14T07:11:44.918Z,4.00
2018-07-14T07:14:13.523Z,4.30
2018-07-14T07:16:42.058Z,3.70
2018-07-14T07:19:10.629Z,3.90
2018-07-14T07:21:39.217Z,3.97
2018-07-14T07:24:07.745Z,3.90
2018-07-14T07:26:38.572Z,3.77
2018-07-14T07:29:07.338Z,3.93
2018-07-14T07:31:35.935Z,4.17
2018-07-14T07:34:05.316Z,3.37
2018-07-14T07:36:33.828Z,5.80
2018-07-14T07:39:02.381Z,8.03
2018-07-14T07:41:30.939Z,3.90
2018-07-14T07:43:59.163Z,3.87
2018-07-14T07:46:27.693Z,3.70
2018-07-14T07:48:56.375Z,4.17
2018-07-14T07:51:24.913Z,4.10
2018-07-14T07:53:53.442Z,4.40
2018-07-14T07:56:21.972Z,3.47
2018-07-14T07:58:50.771Z,4.10
2018-07-14T08:01:19.334Z,3.40
2018-07-14T08:03:47.881Z,3.53
2018-07-14T08:06:16.405Z,3.63
2018-07-14T08:08:45.284Z,3.70
2018-07-14T08:11:13.838Z,3.43
2018-07-14T08:13:42.366Z,4.27
2018-07-14T08:16:11.113Z,3.20
2018-07-14T08:18:39.611Z,3.67
2018-07-14T08:21:08.734Z,3.80
2018-07-14T08:23:37.545Z,4.43
2018-07-14T08:26:06.722Z,3.83
2018-07-14T08:28:35.283Z,3.33
2018-07-14T08:31:03.990Z,3.07
2018-07-14T08:33:32.551Z,3.37
2018-07-14T08:36:01.088Z,3.67
2018-07-14T08:38:29.642Z,3.77
2018-07-14T08:40:58.179Z,3.60
2018-07-14T08:43:26.742Z,3.80
2018-07-14T08:45:55.934Z,4.00
2018-07-14T08:48:24.467Z,3.23
2018-07-14T08:50:52.678Z,3.60
2018-07-14T08:53:21.466Z,3.63
2018-07-14T08:55:49.986Z,3.63
2018-07-14T08:58:18.648Z,3.73
2018-07-14T09:00:47.166Z,3.17
2018-07-14T09:03:15.703Z,2.90
2018-07-14T09:05:44.238Z,3.30
2018-07-14T09:08:12.813Z,3.30
2018-07-14T09:10:41.342Z,3.57
2018-07-14T09:13:09.945Z,4.03
2018-07-14T09:15:38.458Z,3.67
2018-07-14T09:18:07.006Z,3.47
2018-07-14T09:20:35.785Z,3.40
2018-07-14T09:23:04.367Z,3.90
2018-07-14T09:25:32.960Z,3.73
2018-07-14T09:28:01.501Z,3.80
2018-07-14T09:30:30.027Z,3.40
2018-07-14T09:32:58.591Z,3.93
2018-07-14T09:35:27.106Z,3.77
2018-07-14T09:37:55.916Z,4.07
2018-07-14T09:40:24.453Z,3.30
2018-07-14T09:42:52.955Z,3.13
2018-07-14T09:45:21.484Z,3.77
2018-07-14T09:47:50.038Z,3.60
2018-07-14T09:50:18.574Z,3.90
2018-07-14T09:52:47.106Z,3.40
2018-07-14T09:55:15.676Z,4.28
2018-07-14T09:57:44.175Z,3.13
2018-07-14T10:00:18.200Z,2.90
2018-07-14T10:02:46.710Z,3.27
2018-07-14T10:05:15.249Z,3.23
2018-07-14T10:07:43.783Z,3.00
2018-07-14T10:10:12.351Z,3.33
2018-07-14T10:12:40.906Z,3.00
2018-07-14T10:15:09.514Z,3.10
2018-07-14T10:17:38.035Z,3.50
2018-07-14T10:20:06.714Z,3.33
2018-07-14T10:22:35.225Z,3.20
2018-07-14T10:25:03.838Z,3.20
2018-07-14T10:27:32.343Z,3.27
2018-07-14T10:30:00.901Z,2.97
2018-07-14T10:32:29.446Z,3.17
2018-07-14T10:34:57.999Z,3.13
2018-07-14T10:37:26.503Z,3.20
2018-07-14T10:39:55.044Z,2.83
2018-07-14T10:42:23.577Z,3.50
2018-07-14T10:44:52.134Z,2.83
2018-07-14T10:47:20.646Z,3.50
2018-07-14T10:49:49.210Z,3.50
2018-07-14T10:52:17.734Z,3.03
2018-07-14T10:54:46.262Z,3.60
2018-07-14T10:57:14.756Z,3.60
2018-07-14T10:59:43.311Z,3.63
2018-07-14T11:02:11.838Z,2.80
2018-07-14T11:04:40.371Z,3.10
2018-07-14T11:07:08.945Z,2.90
2018-07-14T11:09:37.513Z,2.67
2018-07-14T11:12:06.067Z,2.97
2018-07-14T11:14:34.566Z,2.90
2018-07-14T11:17:03.114Z,3.00
2018-07-14T11:19:31.625Z,2.63
2018-07-14T11:22:00.185Z,3.17
2018-07-14T11:24:28.719Z,3.07
2018-07-14T11:26:57.233Z,2.77
2018-07-14T11:29:25.763Z,2.90
2018-07-14T11:31:54.293Z,2.67
2018-07-14T11:34:22.821Z,2.60
2018-07-14T11:36:51.579Z,2.70
2018-07-14T11:39:20.101Z,2.60
2018-07-14T11:41:48.680Z,2.77
2018-07-14T11:44:17.185Z,3.07
2018-07-14T11:46:45.702Z,2.93
2018-07-14T11:49:14.235Z,3.00
2018-07-14T11:51:42.806Z,2.87
2018-07-14T11:54:11.383Z,2.90
2018-07-14T11:56:39.880Z,2.73
2018-07-14T11:59:08.394Z,2.70
2018-07-14T12:01:36.935Z,2.90
2018-07-14T12:04:05.499Z,3.20
2018-07-14T12:06:34.139Z,3.53
2018-07-14T12:09:02.726Z,3.20
2018-07-14T12:11:31.269Z,3.57
2018-07-14T12:13:59.821Z,2.80
2018-07-14T12:16:28.351Z,3.40
2018-07-14T12:18:56.877Z,3.50
2018-07-14T12:21:25.418Z,3.47
2018-07-14T12:23:53.926Z,3.10
2018-07-14T12:26:22.511Z,3.23
2018-07-14T12:28:51.055Z,2.97
2018-07-14T12:31:19.616Z,3.00
2018-07-14T12:33:48.156Z,3.00
2018-07-14T12:36:16.686Z,3.20
2018-07-14T12:38:45.275Z,3.00
2018-07-14T12:41:13.938Z,2.90
2018-07-14T12:43:42.531Z,2.50
2018-07-14T12:46:11.089Z,3.00
2018-07-14T12:48:39.601Z,2.87
2018-07-14T12:51:08.134Z,2.40
2018-07-14T12:53:36.647Z,2.27
2018-07-14T12:56:05.258Z,2.93
2018-07-14T12:58:33.829Z,2.97
2018-07-14T13:01:02.385Z,2.40
2018-07-14T13:03:30.984Z,3.00
2018-07-14T13:05:59.594Z,3.43
2018-07-14T13:08:28.137Z,3.53
2018-07-14T13:10:56.654Z,3.30
2018-07-14T13:13:25.193Z,3.03
2018-07-14T13:15:53.702Z,3.80
2018-07-14T13:18:22.235Z,2.47
2018-07-14T13:20:50.749Z,3.60
2018-07-14T13:23:19.315Z,3.60
2018-07-14T13:25:48.243Z,2.70
2018-07-14T13:28:16.779Z,3.30
2018-07-14T13:30:45.371Z,2.97
2018-07-14T13:33:13.940Z,2.97
2018-07-14T13:35:42.491Z,2.90
2018-07-14T13:38:11.052Z,2.77
2018-07-14T13:40:39.602Z,3.20
2018-07-14T13:43:08.236Z,2.80
2018-07-14T13:45:36.792Z,3.10
2018-07-14T13:48:05.458Z,3.23
2018-07-14T13:50:36.315Z,3.27
2018-07-14T13:53:04.973Z,2.83
2018-07-14T13:55:33.798Z,2.93
2018-07-14T13:58:02.333Z,3.17
2018-07-14T14:00:30.910Z,3.57
2018-07-14T14:02:59.451Z,2.90
2018-07-14T14:05:29.531Z,3.13
2018-07-14T14:07:58.078Z,3.23
2018-07-14T14:10:26.594Z,3.60
2018-07-14T14:12:55.143Z,4.27
2018-07-14T14:15:23.668Z,3.73
2018-07-14T14:17:52.229Z,3.53
2018-07-14T14:20:20.742Z,3.60
2018-07-14T14:22:50.113Z,3.43
2018-07-14T14:25:18.629Z,3.53
2018-07-14T14:27:47.161Z,2.70
2018-07-14T14:30:15.713Z,3.00
2018-07-14T14:32:44.244Z,3.47
2018-07-14T14:35:12.759Z,3.40
2018-07-14T14:37:41.295Z,3.30
2018-07-14T14:40:09.863Z,3.50
2018-07-14T14:42:38.463Z,3.50
2018-07-14T14:45:07.341Z,3.17
2018-07-14T14:47:35.906Z,3.23
2018-07-14T14:50:04.889Z,3.60
2018-07-14T14:52:33.447Z,3.50
2018-07-14T14:55:02.124Z,2.80
2018-07-14T14:57:30.689Z,2.97
2018-07-14T14:59:59.205Z,3.10
2018-07-14T15:02:27.742Z,3.47
2018-07-14T15:04:56.295Z,3.63
2018-07-14T15:07:24.908Z,3.27
2018-07-14T15:09:53.458Z,2.87
2018-07-14T15:12:21.985Z,3.50
2018-07-14T15:14:50.519Z,3.33
2018-07-14T15:17:19.045Z,3.13
2018-07-14T15:19:47.699Z,3.43
2018-07-14T15:22:16.245Z,3.83
2018-07-14T15:24:45.186Z,3.80
2018-07-14T15:27:13.736Z,4.20
2018-07-14T15:29:42.322Z,3.77
2018-07-14T15:32:11.126Z,3.40
2018-07-14T15:34:40.001Z,3.50
2018-07-14T15:37:09.154Z,3.77
2018-07-14T15:39:38.209Z,2.80
2018-07-14T15:42:07.303Z,3.20
2018-07-14T15:44:36.498Z,3.17
2018-07-14T15:47:05.381Z,3.10
2018-07-14T15:49:33.977Z,3.20
2018-07-14T15:52:02.634Z,3.20
2018-07-14T15:54:31.406Z,3.53
2018-07-14T15:56:59.933Z,3.77
2018-07-14T15:59:28.597Z,3.57
2018-07-14T16:01:57.309Z,4.87
2018-07-14T16:04:25.952Z,3.60
2018-07-14T16:06:54.618Z,4.03
2018-07-14T16:09:23.430Z,4.27
2018-07-14T16:11:52.045Z,4.87
2018-07-14T16:14:20.601Z,4.70
2018-07-14T16:16:49.201Z,4.57
2018-07-14T16:19:17.737Z,4.17
2018-07-14T16:21:46.313Z,3.80
2018-07-14T16:24:14.977Z,3.23
2018-07-14T16:26:43.527Z,3.10
2018-07-14T16:29:11.803Z,3.80
2018-07-14T16:31:40.347Z,3.03
2018-07-14T16:34:09.038Z,3.53
2018-07-14T16:36:37.656Z,3.90
2018-07-14T16:39:08.610Z,3.53
2018-07-14T16:41:37.255Z,3.00
2018-07-14T16:44:05.837Z,3.43
2018-07-14T16:46:34.608Z,3.10
2018-07-14T16:49:03.339Z,2.83
2018-07-14T16:51:32.106Z,3.13
2018-07-14T16:54:01.194Z,2.80
2018-07-14T16:56:30.023Z,2.90
2018-07-14T16:58:58.582Z,10.27
2018-07-14T17:01:27.289Z,4.00
2018-07-14T17:03:56.011Z,3.70
2018-07-14T17:06:24.800Z,3.87
2018-07-14T17:08:53.354Z,3.53
2018-07-14T17:11:21.895Z,3.10
2018-07-14T17:13:50.433Z,3.73
2018-07-14T17:16:19.251Z,3.53
2018-07-14T17:18:47.769Z,3.53
2018-07-14T17:21:16.342Z,3.60
2018-07-14T17:23:44.858Z,12.53
2018-07-14T17:26:13.390Z,10.20
2018-07-14T17:28:41.960Z,7.50
2018-07-14T17:31:10.543Z,4.90
2018-07-14T17:33:39.166Z,4.70
2018-07-14T17:36:07.732Z,3.80
2018-07-14T17:38:36.251Z,4.40
2018-07-14T17:41:04.804Z,4.07
2018-07-14T17:43:33.347Z,3.67
2018-07-14T17:46:01.900Z,4.70
2018-07-14T17:48:30.529Z,4.60
2018-07-14T17:50:59.216Z,3.70
2018-07-14T17:53:27.770Z,3.87
2018-07-14T17:55:56.325Z,4.60
2018-07-14T17:58:24.860Z,6.40
2018-07-14T18:00:53.673Z,5.73
2018-07-14T18:03:22.190Z,5.00
2018-07-14T18:05:50.732Z,4.60
2018-07-14T18:08:19.287Z,4.77
2018-07-14T18:10:47.929Z,4.23
2018-07-14T18:13:16.458Z,4.80
2018-07-14T18:15:45.031Z,5.80
2018-07-14T18:18:13.546Z,7.20
2018-07-14T18:20:42.066Z,6.30
2018-07-14T18:23:10.609Z,6.27
2018-07-14T18:25:39.239Z,5.50
2018-07-14T18:28:07.779Z,4.43
2018-07-14T18:30:36.284Z,5.10
2018-07-14T18:33:04.852Z,6.00
2018-07-14T18:35:33.371Z,6.33
2018-07-14T18:38:01.909Z,5.93
2018-07-14T18:40:30.425Z,6.10
2018-07-14T18:42:59.083Z,8.57
2018-07-14T18:45:27.681Z,9.60
2018-07-14T18:47:56.272Z,7.77
2018-07-14T18:50:24.833Z,7.17
2018-07-14T18:52:53.417Z,7.40
2018-07-14T18:55:21.945Z,6.67
2018-07-14T18:57:50.718Z,6.60
2018-07-14T19:00:19.253Z,6.23
2018-07-14T19:02:47.805Z,6.80
2018-07-14T19:05:16.340Z,6.80
2018-07-14T19:07:44.963Z,6.80
2018-07-14T19:10:13.478Z,7.67
2018-07-14T19:12:41.693Z,7.13
2018-07-14T19:15:10.411Z,6.73
2018-07-14T19:17:38.977Z,8.63
2018-07-14T19:20:07.811Z,6.73
2018-07-14T19:22:36.343Z,5.50
2018-07-14T19:25:04.929Z,5.17
2018-07-14T19:27:33.465Z,5.40
2018-07-14T19:30:02.010Z,5.23
2018-07-14T19:32:30.545Z,5.50
2018-07-14T19:34:59.094Z,5.83
2018-07-14T19:37:27.627Z,5.40
2018-07-14T19:39:56.213Z,5.50
2018-07-14T19:42:25.023Z,6.10
2018-07-14T19:44:54.924Z,5.33
2018-07-14T19:47:23.626Z,5.33
2018-07-14T19:49:52.175Z,5.50
2018-07-14T19:52:20.892Z,6.10
2018-07-14T19:54:49.577Z,13.90
2018-07-14T19:57:18.186Z,13.80
2018-07-14T19:59:46.841Z,8.27
2018-07-14T20:02:15.363Z,6.60
2018-07-14T20:04:44.013Z,8.00
2018-07-14T20:07:12.779Z,5.83
2018-07-14T20:09:41.581Z,5.63
2018-07-14T20:12:10.393Z,5.83
2018-07-14T20:14:38.931Z,5.87
2018-07-14T20:17:07.706Z,6.40
2018-07-14T20:19:36.332Z,6.10
2018-07-14T20:22:04.868Z,6.40
2018-07-14T20:24:33.643Z,5.70
2018-07-14T20:27:02.192Z,5.50
2018-07-14T20:29:30.991Z,5.43
2018-07-14T20:31:59.570Z,5.70
2018-07-14T20:34:28.189Z,6.40
2018-07-14T20:36:56.519Z,6.37
2018-07-14T20:39:25.071Z,6.10
2018-07-14T20:41:53.770Z,6.73
2018-07-14T20:44:22.279Z,6.20
2018-07-14T20:46:50.831Z,5.63
2018-07-14T20:49:19.389Z,6.00
2018-07-14T20:51:48.122Z,5.53
2018-07-14T20:54:16.827Z,8.10
2018-07-14T20:56:45.375Z,7.10
2018-07-14T20:59:14.021Z,9.23
2018-07-14T21:01:42.638Z,14.77
2018-07-14T21:04:11.191Z,11.70
2018-07-14T21:06:39.749Z,8.10
2018-07-14T21:09:08.433Z,7.20
2018-07-14T21:11:36.971Z,7.13
2018-07-14T21:14:05.710Z,6.77
2018-07-14T21:16:34.258Z,8.40
2018-07-14T21:19:03.073Z,7.13
2018-07-14T21:21:31.778Z,7.03
2018-07-14T21:24:00.543Z,7.60
2018-07-14T21:26:29.219Z,6.47
2018-07-14T21:28:57.814Z,7.60
2018-07-14T21:31:26.503Z,6.53
2018-07-14T21:33:55.122Z,6.67
2018-07-14T21:36:23.771Z,6.50
2018-07-14T21:38:52.437Z,7.50
2018-07-14T21:41:21.115Z,6.20
2018-07-14T21:43:49.918Z,6.90
2018-07-14T21:46:19.248Z,8.77
2018-07-14T21:48:48.569Z,6.80
2018-07-14T21:51:17.262Z,8.10
2018-07-14T21:53:46.012Z,7.30
2018-07-14T21:56:14.729Z,8.10
2018-07-14T21:58:43.338Z,8.33
2018-07-14T22:01:17.469Z,9.10
2018-07-14T22:03:46.166Z,8.43
2018-07-14T22:06:14.714Z,9.77
2018-07-14T22:08:43.548Z,9.60
2018-07-14T22:11:12.234Z,10.40
2018-07-14T22:13:40.945Z,9.70
2018-07-14T22:16:09.786Z,9.20
2018-07-14T22:18:38.485Z,9.97
2018-07-14T22:21:07.091Z,10.10
2018-07-14T22:23:35.679Z,9.37
2018-07-14T22:26:04.240Z,9.70
2018-07-14T22:28:32.869Z,10.30
2018-07-14T22:31:01.450Z,10.90
2018-07-14T22:33:29.974Z,10.80
2018-07-14T22:35:58.551Z,10.03
2018-07-14T22:38:27.099Z,9.07
2018-07-14T22:40:55.651Z,11.17
2018-07-14T22:43:24.190Z,11.30
2018-07-14T22:45:52.757Z,11.60
2018-07-14T22:48:21.466Z,11.00
2018-07-14T22:50:50.025Z,10.87
2018-07-14T22:53:18.580Z,10.97
2018-07-14T22:55:47.131Z,11.27
2018-07-14T22:58:15.649Z,10.33
2018-07-14T23:00:44.204Z,11.17
2018-07-14T23:03:12.726Z,11.60
2018-07-14T23:05:41.286Z,11.33
2018-07-14T23:08:09.833Z,10.77
2018-07-14T23:10:38.390Z,10.87
2018-07-14T23:13:06.913Z,11.00
2018-07-14T23:15:35.450Z,10.00
2018-07-14T23:18:04.113Z,10.70
2018-07-14T23:20:32.671Z,10.10
2018-07-14T23:23:01.190Z,9.90
2018-07-14T23:25:29.730Z,11.33
2018-07-14T23:27:58.237Z,11.43
2018-07-14T23:30:26.875Z,10.73
2018-07-14T23:32:55.402Z,11.40
2018-07-14T23:35:23.948Z,9.60
2018-07-14T23:37:52.491Z,9.53
2018-07-14T23:40:21.034Z,11.57
2018-07-14T23:42:49.579Z,10.60
2018-07-14T23:45:18.102Z,9.00
2018-07-14T23:47:46.654Z,9.90
2018-07-14T23:50:15.178Z,11.23
2018-07-14T23:52:43.729Z,10.87
2018-07-14T23:55:12.288Z,10.40
2018-07-14T23:57:40.850Z,10.20
